createdAt,value
2018-01-05T00:00:39.082Z,8.45
2018-01-05T00:01:38.807Z,8.48
2018-01-05T00:02:39.064Z,8.41
2018-01-05T00:03:38.791Z,8.48
2018-01-05T00:04:39.053Z,8.53
2018-01-05T00:05:39.030Z,8.52
2018-01-05T00:06:39.007Z,8.56
2018-01-05T00:07:38.992Z,8.63
2018-01-05T00:08:38.990Z,8.65
2018-01-05T00:09:38.997Z,8.61
2018-01-05T00:10:38.978Z,8.63
2018-01-05T00:11:38.954Z,8.66
2018-01-05T00:12:38.941Z,8.74
2018-01-05T00:13:38.934Z,8.83
2018-01-05T00:14:38.924Z,8.71
2018-01-05T00:15:38.657Z,8.81
2018-01-05T00:16:38.899Z,8.84
2018-01-05T00:17:38.896Z,8.86
2018-01-05T00:18:38.879Z,8.91
2018-01-05T00:19:38.869Z,8.99
2018-01-05T00:20:38.872Z,8.98
2018-01-05T00:21:38.860Z,8.98
2018-01-05T00:22:38.838Z,9.08
2018-01-05T00:23:38.571Z,9.01
2018-01-05T00:24:38.312Z,9.02
2018-01-05T00:25:38.808Z,9.05
2018-01-05T00:26:38.799Z,9.13
2018-01-05T00:27:38.788Z,9.11
2018-01-05T00:28:38.778Z,9.14
2018-01-05T00:29:38.504Z,9.13
2018-01-05T00:30:38.754Z,9.17
2018-01-05T00:31:38.760Z,9.18
2018-01-05T00:32:38.744Z,9.18
2018-01-05T00:33:38.730Z,9.11
2018-01-05T00:34:38.721Z,9.21
2018-01-05T00:35:38.708Z,9.21
2018-01-05T00:36:38.689Z,9.13
2018-01-05T00:37:38.682Z,9.13
2018-01-05T00:38:38.670Z,9.11
2018-01-05T00:39:38.684Z,9.05
2018-01-05T00:40:38.646Z,9.02
2018-01-05T00:41:38.694Z,9.04
2018-01-05T00:42:38.634Z,9.02
2018-01-05T00:43:38.623Z,9.04
2018-01-05T00:44:38.349Z,9.02
2018-01-05T00:45:38.592Z,9.01
2018-01-05T00:46:38.593Z,9.04
2018-01-05T00:47:38.572Z,9.13
2018-01-05T00:48:38.573Z,9.08
2018-01-05T00:49:38.548Z,9.02
2018-01-05T00:50:38.543Z,9.08
2018-01-05T00:51:38.531Z,9.1
2018-01-05T00:52:38.518Z,9.02
2018-01-05T00:53:38.503Z,9.04
2018-01-05T00:54:38.498Z,9.14
2018-01-05T00:55:38.491Z,9.04
2018-01-05T00:56:38.490Z,9.1
2018-01-05T00:57:38.466Z,9.08
2018-01-05T00:58:38.492Z,9.02
2018-01-05T00:59:38.444Z,9.02
2018-01-05T01:00:38.432Z,9.13
2018-01-05T01:01:38.439Z,9.04
2018-01-05T01:02:38.157Z,9.1
2018-01-05T01:03:38.402Z,9.14
2018-01-05T01:04:38.384Z,9.08
2018-01-05T01:05:38.383Z,9.02
2018-01-05T01:06:38.106Z,9.01
2018-01-05T01:07:38.354Z,8.94
2018-01-05T01:08:38.347Z,8.96
2018-01-05T01:09:38.333Z,8.83
2018-01-05T01:10:38.331Z,8.76
2018-01-05T01:11:38.329Z,8.84
2018-01-05T01:12:38.314Z,8.79
2018-01-05T01:13:38.331Z,8.71
2018-01-05T01:14:38.276Z,8.74
2018-01-05T01:15:38.273Z,8.76
2018-01-05T01:16:38.274Z,8.81
2018-01-05T01:17:38.026Z,8.66
2018-01-05T01:18:38.247Z,8.73
2018-01-05T01:19:37.975Z,8.65
2018-01-05T01:20:38.227Z,8.74
2018-01-05T01:21:38.277Z,8.79
2018-01-05T01:22:38.199Z,8.79
2018-01-05T01:23:37.948Z,8.8
2018-01-05T01:24:38.191Z,8.87
2018-01-05T01:25:37.923Z,8.8
2018-01-05T01:26:38.160Z,8.8
2018-01-05T01:27:38.158Z,8.84
2018-01-05T01:28:38.147Z,8.91
2018-01-05T01:29:38.118Z,8.86
2018-01-05T01:30:38.117Z,8.94
2018-01-05T01:31:38.092Z,8.92
2018-01-05T01:32:38.102Z,8.96
2018-01-05T01:33:38.080Z,8.96
2018-01-05T01:34:37.805Z,8.99
2018-01-05T01:35:38.071Z,9.04
2018-01-05T01:36:38.053Z,8.99
2018-01-05T01:37:38.032Z,9.08
2018-01-05T01:38:37.784Z,9.02
2018-01-05T01:39:38.009Z,9.01
2018-01-05T01:40:38.005Z,9.08
2018-01-05T01:41:37.990Z,9.1
2018-01-05T01:42:37.984Z,9.17
2018-01-05T01:43:37.723Z,9.14
2018-01-05T01:44:37.953Z,9.24
2018-01-05T01:45:37.949Z,9.24
2018-01-05T01:46:37.943Z,9.21
2018-01-05T01:47:37.927Z,9.18
2018-01-05T01:48:37.924Z,9.18
2018-01-05T01:49:37.938Z,9.28
2018-01-05T01:50:37.897Z,9.29
2018-01-05T01:51:37.879Z,9.31
2018-01-05T01:52:37.868Z,9.32
2018-01-05T01:53:37.867Z,9.35
2018-01-05T01:54:37.609Z,9.38
2018-01-05T01:55:37.845Z,9.4
2018-01-05T01:56:37.853Z,9.36
2018-01-05T01:57:37.831Z,9.47
2018-01-05T01:58:37.820Z,9.43
2018-01-05T01:59:37.816Z,9.42
2018-01-05T02:00:37.791Z,9.48
2018-01-05T02:01:37.785Z,9.48
2018-01-05T02:02:37.781Z,9.43
2018-01-05T02:03:37.772Z,9.51
2018-01-05T02:04:37.747Z,9.47
2018-01-05T02:05:37.732Z,9.47
2018-01-05T02:06:37.738Z,9.47
2018-01-05T02:07:37.761Z,9.58
2018-01-05T02:08:37.710Z,9.61
2018-01-05T02:09:37.719Z,9.61
2018-01-05T02:10:37.702Z,9.64
2018-01-05T02:11:37.686Z,9.64
2018-01-05T02:12:37.673Z,9.68
2018-01-05T02:13:37.654Z,9.66
2018-01-05T02:14:37.653Z,9.64
2018-01-05T02:15:37.628Z,9.64
2018-01-05T02:16:37.625Z,9.71
2018-01-05T02:17:37.606Z,9.69
2018-01-05T02:18:37.616Z,9.68
2018-01-05T02:19:37.080Z,9.65
2018-01-05T02:20:37.586Z,9.68
2018-01-05T02:21:37.572Z,9.71
2018-01-05T02:22:37.557Z,9.71
2018-01-05T02:23:37.559Z,9.66
2018-01-05T02:24:37.537Z,9.68
2018-01-05T02:25:37.271Z,9.68
2018-01-05T02:26:37.260Z,9.71
2018-01-05T02:27:37.522Z,9.72
2018-01-05T02:28:37.512Z,9.6
2018-01-05T02:29:37.490Z,9.5
2018-01-05T02:30:37.491Z,9.47
2018-01-05T02:31:37.209Z,9.54
2018-01-05T02:32:37.480Z,9.46
2018-01-05T02:33:37.462Z,9.38
2018-01-05T02:34:37.445Z,9.31
2018-01-05T02:35:37.439Z,9.23
2018-01-05T02:36:37.169Z,9.18
2018-01-05T02:37:37.400Z,9.11
2018-01-05T02:38:37.406Z,9.04
2018-01-05T02:39:37.395Z,9.04
2018-01-05T02:40:37.372Z,8.89
2018-01-05T02:41:37.380Z,8.94
2018-01-05T02:42:37.352Z,8.87
2018-01-05T02:43:37.355Z,8.74
2018-01-05T02:44:37.338Z,8.81
2018-01-05T02:45:37.328Z,8.83
2018-01-05T02:46:37.316Z,8.73
2018-01-05T02:47:37.312Z,8.7
2018-01-05T02:48:37.294Z,8.68
2018-01-05T02:49:37.286Z,8.58
2018-01-05T02:50:37.282Z,8.63
2018-01-05T02:51:37.258Z,8.55
2018-01-05T02:52:37.264Z,8.48
2018-01-05T02:53:37.247Z,8.48
2018-01-05T02:54:36.968Z,8.44
2018-01-05T02:55:37.208Z,8.45
2018-01-05T02:56:37.213Z,8.45
2018-01-05T02:57:37.250Z,8.52
2018-01-05T02:58:37.200Z,8.52
2018-01-05T02:59:37.179Z,8.48
2018-01-05T03:00:37.190Z,8.5
2018-01-05T03:01:37.150Z,8.43
2018-01-05T03:02:37.153Z,8.44
2018-01-05T03:03:37.128Z,8.44
2018-01-05T03:04:37.112Z,8.5
2018-01-05T03:05:37.107Z,8.5
2018-01-05T03:06:37.108Z,8.61
2018-01-05T03:07:37.130Z,8.61
2018-01-05T03:08:37.077Z,8.62
2018-01-05T03:09:36.802Z,8.59
2018-01-05T03:10:36.787Z,8.68
2018-01-05T03:11:37.058Z,8.74
2018-01-05T03:12:37.079Z,8.71
2018-01-05T03:13:37.033Z,8.74
2018-01-05T03:14:36.752Z,8.79
2018-01-05T03:15:36.989Z,8.74
2018-01-05T03:16:37.005Z,8.74
2018-01-05T03:17:37.035Z,8.79
2018-01-05T03:18:36.973Z,8.86
2018-01-05T03:19:36.958Z,8.77
2018-01-05T03:20:36.956Z,8.8
2018-01-05T03:21:36.932Z,8.92
2018-01-05T03:22:36.664Z,8.86
2018-01-05T03:23:36.924Z,8.87
2018-01-05T03:24:36.647Z,8.86
2018-01-05T03:25:36.891Z,8.94
2018-01-05T03:26:36.892Z,8.84
2018-01-05T03:27:36.868Z,8.79
2018-01-05T03:28:36.856Z,8.84
2018-01-05T03:29:36.845Z,8.68
2018-01-05T03:30:36.856Z,8.76
2018-01-05T03:31:36.823Z,8.73
2018-01-05T03:32:36.846Z,8.58
2018-01-05T03:33:36.798Z,8.63
2018-01-05T03:34:36.783Z,8.55
2018-01-05T03:35:36.772Z,8.47
2018-01-05T03:36:36.771Z,8.4
2018-01-05T03:37:36.762Z,8.4
2018-01-05T03:38:36.740Z,8.45
2018-01-05T03:39:36.748Z,8.34
2018-01-05T03:40:36.731Z,8.29
2018-01-05T03:41:36.715Z,8.28
2018-01-05T03:42:36.712Z,8.3
2018-01-05T03:43:36.684Z,8.2
2018-01-05T03:44:36.685Z,8.16
2018-01-05T03:45:36.684Z,8.12
2018-01-05T03:46:36.652Z,8.04
2018-01-05T03:47:36.653Z,8.12
2018-01-05T03:48:36.647Z,8.01
2018-01-05T03:49:36.628Z,7.98
2018-01-05T03:50:36.611Z,8.04
2018-01-05T03:51:36.355Z,8.01
2018-01-05T03:52:36.592Z,8.01
2018-01-05T03:53:36.584Z,8.01
2018-01-05T03:54:36.571Z,8.04
2018-01-05T03:55:36.565Z,8.01
2018-01-05T03:56:36.573Z,8.07
2018-01-05T03:57:36.538Z,8.15
2018-01-05T03:58:36.537Z,8.16
2018-01-05T03:59:36.250Z,8.15
2018-01-05T04:00:36.521Z,8.11
2018-01-05T04:01:36.489Z,8.11
2018-01-05T04:02:36.482Z,8
2018-01-05T04:03:36.469Z,8.01
2018-01-05T04:04:36.465Z,8.16
2018-01-05T04:05:36.447Z,8.02
2018-01-05T04:06:36.483Z,7.98
2018-01-05T04:07:36.422Z,8.1
2018-01-05T04:08:36.422Z,8
2018-01-05T04:09:36.396Z,8.05
2018-01-05T04:10:36.394Z,7.98
2018-01-05T04:11:36.372Z,8.02
2018-01-05T04:12:36.365Z,8
2018-01-05T04:13:36.358Z,8.02
2018-01-05T04:14:36.350Z,8.02
2018-01-05T04:15:36.335Z,8.04
2018-01-05T04:16:36.065Z,8.01
2018-01-05T04:17:36.303Z,8
2018-01-05T04:18:36.291Z,8
2018-01-05T04:19:36.292Z,7.98
2018-01-05T04:20:36.269Z,7.89
2018-01-05T04:21:36.008Z,7.92
2018-01-05T04:22:36.257Z,7.95
2018-01-05T04:23:36.250Z,7.95
2018-01-05T04:24:35.981Z,7.97
2018-01-05T04:25:36.231Z,8.02
2018-01-05T04:26:36.210Z,7.98
2018-01-05T04:27:36.184Z,8.02
2018-01-05T04:28:36.193Z,8.19
2018-01-05T04:29:36.172Z,8.15
2018-01-05T04:30:36.173Z,8.19
2018-01-05T04:31:36.139Z,8.29
2018-01-05T04:32:36.132Z,8.34
2018-01-05T04:33:36.135Z,8.28
2018-01-05T04:34:36.108Z,8.3
2018-01-05T04:35:36.093Z,8.33
2018-01-05T04:36:36.094Z,8.36
2018-01-05T04:37:36.085Z,8.33
2018-01-05T04:38:36.074Z,8.33
2018-01-05T04:39:36.088Z,8.3
2018-01-05T04:40:35.781Z,8.28
2018-01-05T04:41:36.035Z,8.29
2018-01-05T04:42:36.015Z,8.33
2018-01-05T04:43:36.012Z,8.19
2018-01-05T04:44:36.006Z,8.28
2018-01-05T04:45:35.989Z,8.19
2018-01-05T04:46:35.978Z,8.22
2018-01-05T04:47:35.710Z,8.28
2018-01-05T04:48:35.956Z,8.26
2018-01-05T04:49:35.948Z,8.3
2018-01-05T04:50:35.929Z,8.28
2018-01-05T04:51:35.667Z,8.36
2018-01-05T04:52:35.902Z,8.33
2018-01-05T04:53:35.901Z,8.36
2018-01-05T04:54:35.891Z,8.41
2018-01-05T04:55:35.884Z,8.36
2018-01-05T04:56:35.863Z,8.4
2018-01-05T04:57:35.846Z,8.26
2018-01-05T04:58:35.847Z,8.36
2018-01-05T04:59:35.837Z,8.4
2018-01-05T05:00:35.833Z,8.38
2018-01-05T05:01:35.552Z,8.37
2018-01-05T05:02:35.799Z,8.33
2018-01-05T05:03:35.542Z,8.4
2018-01-05T05:04:35.775Z,8.38
2018-01-05T05:05:35.757Z,8.34
2018-01-05T05:06:35.757Z,8.25
2018-01-05T05:07:35.738Z,8.2
2018-01-05T05:08:35.470Z,8.15
2018-01-05T05:09:35.721Z,8.15
2018-01-05T05:10:35.702Z,8.15
2018-01-05T05:11:35.702Z,8.01
2018-01-05T05:12:35.696Z,8
2018-01-05T05:13:35.690Z,7.98
2018-01-05T05:14:35.663Z,8.05
2018-01-05T05:15:35.669Z,8.02
2018-01-05T05:16:35.656Z,7.97
2018-01-05T05:17:35.625Z,7.89
2018-01-05T05:18:35.614Z,7.89
2018-01-05T05:19:35.608Z,7.85
2018-01-05T05:20:35.592Z,7.9
2018-01-05T05:21:35.072Z,7.86
2018-01-05T05:22:35.593Z,7.89
2018-01-05T05:23:35.556Z,7.86
2018-01-05T05:24:35.556Z,7.83
2018-01-05T05:25:35.546Z,7.8
2018-01-05T05:26:35.531Z,7.83
2018-01-05T05:27:35.567Z,7.77
2018-01-05T05:28:35.509Z,7.75
2018-01-05T05:29:35.497Z,7.69
2018-01-05T05:30:35.474Z,7.64
2018-01-05T05:31:35.464Z,7.71
2018-01-05T05:32:35.452Z,7.52
2018-01-05T05:33:35.452Z,7.6
2018-01-05T05:34:35.443Z,7.58
2018-01-05T05:35:35.432Z,7.63
2018-01-05T05:36:35.410Z,7.64
2018-01-05T05:37:35.403Z,7.55
2018-01-05T05:38:35.398Z,7.52
2018-01-05T05:39:35.377Z,7.45
2018-01-05T05:40:35.385Z,7.46
2018-01-05T05:41:35.354Z,7.37
2018-01-05T05:42:35.337Z,7.39
2018-01-05T05:43:35.336Z,7.3
2018-01-05T05:44:35.315Z,7.32
2018-01-05T05:45:35.310Z,7.37
2018-01-05T05:46:35.307Z,7.3
2018-01-05T05:47:35.286Z,7.28
2018-01-05T05:48:35.274Z,7.25
2018-01-05T05:49:35.265Z,7.27
2018-01-05T05:50:35.248Z,7.23
2018-01-05T05:51:35.244Z,7.15
2018-01-05T05:52:35.225Z,7.17
2018-01-05T05:53:35.219Z,7.07
2018-01-05T05:54:35.209Z,7.13
2018-01-05T05:55:35.204Z,7.17
2018-01-05T05:56:35.174Z,7.24
2018-01-05T05:57:35.164Z,7.23
2018-01-05T05:58:35.169Z,7.05
2018-01-05T05:59:35.144Z,7.03
2018-01-05T06:00:35.137Z,7.12
2018-01-05T06:01:35.120Z,6.99
2018-01-05T06:02:35.164Z,7.09
2018-01-05T06:03:35.106Z,7.06
2018-01-05T06:04:35.090Z,7.06
2018-01-05T06:05:35.081Z,7.07
2018-01-05T06:06:35.064Z,7.09
2018-01-05T06:07:35.054Z,6.99
2018-01-05T06:08:35.040Z,7.02
2018-01-05T06:09:35.029Z,7.02
2018-01-05T06:10:35.014Z,7.06
2018-01-05T06:11:34.997Z,6.99
2018-01-05T06:12:34.990Z,6.95
2018-01-05T06:13:34.716Z,6.91
2018-01-05T06:14:34.970Z,6.85
2018-01-05T06:15:34.951Z,6.89
2018-01-05T06:16:34.944Z,6.84
2018-01-05T06:17:34.672Z,6.81
2018-01-05T06:18:34.921Z,6.81
2018-01-05T06:19:34.641Z,6.81
2018-01-05T06:20:34.894Z,6.7
2018-01-05T06:21:34.884Z,6.77
2018-01-05T06:22:34.875Z,6.73
2018-01-05T06:23:34.865Z,6.7
2018-01-05T06:24:34.852Z,6.7
2018-01-05T06:25:34.842Z,6.69
2018-01-05T06:26:34.822Z,6.7
2018-01-05T06:27:34.813Z,6.69
2018-01-05T06:28:34.799Z,6.7
2018-01-05T06:29:34.786Z,6.74
2018-01-05T06:30:34.772Z,6.66
2018-01-05T06:31:34.498Z,6.71
2018-01-05T06:32:34.761Z,6.66
2018-01-05T06:33:34.739Z,6.87
2018-01-05T06:34:34.775Z,6.88
2018-01-05T06:35:34.708Z,6.92
2018-01-05T06:36:34.696Z,6.85
2018-01-05T06:37:34.686Z,6.87
2018-01-05T06:38:34.672Z,6.84
2018-01-05T06:39:34.659Z,6.91
2018-01-05T06:40:34.655Z,6.98
2018-01-05T06:41:34.628Z,6.84
2018-01-05T06:42:34.623Z,6.8
2018-01-05T06:43:34.618Z,6.85
2018-01-05T06:44:34.349Z,6.88
2018-01-05T06:45:34.590Z,6.94
2018-01-05T06:46:34.588Z,6.95
2018-01-05T06:47:34.561Z,6.94
2018-01-05T06:48:34.294Z,6.97
2018-01-05T06:49:34.543Z,6.94
2018-01-05T06:50:34.523Z,6.94
2018-01-05T06:51:34.259Z,7.03
2018-01-05T06:52:34.496Z,6.98
2018-01-05T06:53:34.494Z,6.97
2018-01-05T06:54:34.219Z,6.98
2018-01-05T06:55:34.466Z,7.07
2018-01-05T06:56:34.454Z,7.09
2018-01-05T06:57:34.454Z,7.07
2018-01-05T06:58:34.442Z,7.06
2018-01-05T06:59:34.157Z,7.06
2018-01-05T07:00:34.398Z,7.09
2018-01-05T07:01:34.395Z,7.16
2018-01-05T07:02:34.385Z,7.15
2018-01-05T07:03:34.111Z,7.1
2018-01-05T07:04:34.361Z,7.21
2018-01-05T07:05:34.336Z,7.17
2018-01-05T07:06:34.335Z,7.3
2018-01-05T07:07:34.062Z,7.27
2018-01-05T07:08:34.316Z,7.28
2018-01-05T07:09:34.055Z,7.43
2018-01-05T07:10:34.279Z,7.42
2018-01-05T07:11:34.278Z,7.45
2018-01-05T07:12:34.259Z,7.46
2018-01-05T07:13:34.249Z,7.57
2018-01-05T07:14:34.005Z,7.52
2018-01-05T07:15:34.219Z,7.52
2018-01-05T07:16:34.214Z,7.49
2018-01-05T07:17:33.945Z,7.48
2018-01-05T07:18:34.182Z,7.45
2018-01-05T07:19:34.178Z,7.45
2018-01-05T07:20:34.219Z,7.55
2018-01-05T07:21:34.160Z,7.58
2018-01-05T07:22:34.139Z,7.6
2018-01-05T07:23:34.140Z,7.55
2018-01-05T07:24:34.138Z,7.58
2018-01-05T07:25:33.847Z,7.6
2018-01-05T07:26:34.098Z,7.63
2018-01-05T07:27:34.097Z,7.63
2018-01-05T07:28:33.810Z,7.67
2018-01-05T07:29:34.094Z,7.68
2018-01-05T07:30:34.050Z,7.68
2018-01-05T07:31:34.057Z,7.68
2018-01-05T07:32:34.045Z,7.72
2018-01-05T07:33:34.026Z,7.82
2018-01-05T07:34:33.996Z,7.83
2018-01-05T07:35:34.004Z,7.87
2018-01-05T07:36:34.007Z,7.9
2018-01-05T07:37:33.961Z,7.86
2018-01-05T07:38:33.961Z,7.97
2018-01-05T07:39:33.942Z,8.02
2018-01-05T07:40:33.945Z,8.07
2018-01-05T07:41:33.660Z,7.98
2018-01-05T07:42:33.927Z,8.04
2018-01-05T07:43:33.888Z,8.12
2018-01-05T07:44:33.892Z,8.16
2018-01-05T07:45:33.894Z,8.25
2018-01-05T07:46:33.863Z,8.2
2018-01-05T07:47:33.857Z,8.2
2018-01-05T07:48:33.856Z,8.26
2018-01-05T07:49:33.831Z,8.25
2018-01-05T07:50:33.808Z,8.22
2018-01-05T07:51:33.550Z,8.34
2018-01-05T07:52:33.785Z,8.3
2018-01-05T07:53:33.795Z,8.34
2018-01-05T07:54:33.530Z,8.34
2018-01-05T07:55:33.753Z,8.34
2018-01-05T07:56:33.748Z,8.33
2018-01-05T07:57:33.769Z,8.36
2018-01-05T07:58:33.754Z,8.37
2018-01-05T07:59:33.717Z,8.34
2018-01-05T08:00:33.723Z,8.34
2018-01-05T08:01:33.701Z,8.37
2018-01-05T08:02:33.689Z,8.34
2018-01-05T08:03:33.661Z,8.37
2018-01-05T08:04:33.659Z,8.33
2018-01-05T08:05:33.641Z,8.45
2018-01-05T08:06:33.681Z,8.45
2018-01-05T08:07:33.619Z,8.45
2018-01-05T08:08:33.628Z,8.38
2018-01-05T08:09:33.608Z,8.43
2018-01-05T08:10:33.596Z,8.47
2018-01-05T08:11:33.578Z,8.53
2018-01-05T08:12:33.307Z,8.5
2018-01-05T08:13:33.551Z,8.59
2018-01-05T08:14:33.550Z,8.59
2018-01-05T08:15:33.552Z,8.7
2018-01-05T08:16:33.528Z,8.71
2018-01-05T08:17:33.516Z,8.73
2018-01-05T08:18:33.501Z,8.71
2018-01-05T08:19:33.505Z,8.73
2018-01-05T08:20:33.580Z,8.76
2018-01-05T08:21:33.491Z,8.86
2018-01-05T08:22:33.475Z,8.87
2018-01-05T08:23:33.456Z,8.87
2018-01-05T08:24:33.432Z,8.95
2018-01-05T08:25:33.422Z,8.98
2018-01-05T08:26:33.429Z,9.02
2018-01-05T08:27:33.433Z,9.11
2018-01-05T08:28:33.391Z,9.24
2018-01-05T08:29:33.144Z,9.23
2018-01-05T08:30:33.391Z,9.24
2018-01-05T08:31:33.374Z,9.26
2018-01-05T08:32:33.360Z,9.35
2018-01-05T08:33:33.337Z,9.43
2018-01-05T08:34:33.356Z,9.48
2018-01-05T08:35:33.330Z,9.48
2018-01-05T08:36:33.324Z,9.53
2018-01-05T08:37:33.324Z,9.64
2018-01-05T08:38:33.311Z,9.6
2018-01-05T08:39:33.294Z,9.6
2018-01-05T08:40:33.276Z,9.69
2018-01-05T08:41:33.270Z,9.68
2018-01-05T08:42:33.259Z,9.68
2018-01-05T08:43:33.242Z,9.79
2018-01-05T08:44:33.233Z,9.78
2018-01-05T08:45:33.221Z,9.78
2018-01-05T08:46:33.206Z,9.81
2018-01-05T08:47:33.214Z,9.84
2018-01-05T08:48:33.214Z,9.89
2018-01-05T08:49:33.177Z,9.96
2018-01-05T08:50:33.169Z,9.99
2018-01-05T08:51:33.157Z,9.99
2018-01-05T08:52:33.156Z,10.14
2018-01-05T08:53:33.145Z,10.17
2018-01-05T08:54:33.132Z,10.22
2018-01-05T08:55:33.129Z,10.32
2018-01-05T08:56:33.117Z,10.3
2018-01-05T08:57:33.125Z,10.33
2018-01-05T08:58:33.092Z,10.44
2018-01-05T08:59:33.108Z,10.47
2018-01-05T09:00:33.084Z,10.47
2018-01-05T09:01:32.851Z,10.47
2018-01-05T09:02:33.064Z,10.45
2018-01-05T09:03:33.037Z,10.53
2018-01-05T09:04:33.050Z,10.48
2018-01-05T09:05:33.018Z,10.55
2018-01-05T09:06:33.018Z,10.68
2018-01-05T09:07:33.029Z,10.61
2018-01-05T09:08:32.992Z,10.63
2018-01-05T09:09:32.992Z,10.74
2018-01-05T09:10:32.995Z,10.74
2018-01-05T09:11:32.960Z,10.79
2018-01-05T09:12:32.956Z,10.76
2018-01-05T09:13:32.698Z,10.79
2018-01-05T09:14:32.941Z,10.71
2018-01-05T09:15:32.924Z,10.73
2018-01-05T09:16:32.933Z,10.64
2018-01-05T09:17:32.915Z,10.64
2018-01-05T09:18:32.932Z,10.64
2018-01-05T09:19:32.882Z,10.71
2018-01-05T09:20:32.887Z,10.66
2018-01-05T09:21:32.918Z,10.64
2018-01-05T09:22:32.923Z,10.79
2018-01-05T09:23:32.930Z,10.76
2018-01-05T09:24:32.852Z,10.71
2018-01-05T09:25:32.834Z,10.7
2018-01-05T09:26:32.826Z,10.78
2018-01-05T09:27:32.818Z,10.79
2018-01-05T09:28:32.837Z,10.79
2018-01-05T09:29:32.790Z,10.79
2018-01-05T09:30:32.807Z,10.79
2018-01-05T09:31:32.793Z,10.88
2018-01-05T09:32:32.780Z,10.89
2018-01-05T09:33:32.770Z,10.91
2018-01-05T09:34:32.760Z,10.88
2018-01-05T09:35:32.778Z,10.91
2018-01-05T09:36:32.730Z,10.97
2018-01-05T09:37:32.725Z,10.89
2018-01-05T09:38:32.722Z,11.03
2018-01-05T09:39:32.703Z,11.06
2018-01-05T09:40:32.763Z,11.09
2018-01-05T09:41:32.720Z,11.04
2018-01-05T09:42:32.698Z,11.09
2018-01-05T09:43:32.688Z,11.17
2018-01-05T09:44:32.661Z,11.32
2018-01-05T09:45:32.647Z,11.25
2018-01-05T09:46:32.647Z,11.29
2018-01-05T09:47:32.633Z,11.24
2018-01-05T09:48:32.645Z,11.37
2018-01-05T09:49:32.647Z,11.28
2018-01-05T09:50:32.661Z,11.28
2018-01-05T09:51:32.619Z,11.37
2018-01-05T09:52:32.588Z,11.35
2018-01-05T09:53:32.590Z,11.37
2018-01-05T09:54:32.566Z,11.36
2018-01-05T09:55:32.576Z,11.36
2018-01-05T09:56:32.551Z,11.39
2018-01-05T09:57:32.292Z,11.4
2018-01-05T09:58:32.540Z,11.51
2018-01-05T09:59:32.560Z,11.46
2018-01-05T10:00:32.614Z,11.58
2018-01-05T10:01:32.550Z,11.55
2018-01-05T10:02:32.545Z,11.54
2018-01-05T10:03:32.508Z,11.61
2018-01-05T10:04:32.495Z,11.67
2018-01-05T10:05:32.484Z,11.76
2018-01-05T10:06:32.468Z,11.75
2018-01-05T10:07:32.457Z,11.75
2018-01-05T10:08:32.466Z,11.78
2018-01-05T10:09:32.439Z,11.79
2018-01-05T10:10:32.451Z,11.83
2018-01-05T10:11:32.182Z,11.79
2018-01-05T10:12:32.434Z,11.8
2018-01-05T10:13:32.404Z,11.86
2018-01-05T10:14:32.421Z,11.83
2018-01-05T10:15:32.147Z,11.9
2018-01-05T10:16:32.381Z,11.9
2018-01-05T10:17:32.394Z,11.85
2018-01-05T10:18:32.383Z,11.79
2018-01-05T10:19:32.375Z,11.76
2018-01-05T10:20:32.396Z,11.76
2018-01-05T10:21:32.811Z,11.8
2018-01-05T10:22:32.074Z,11.79
2018-01-05T10:23:32.339Z,11.78
2018-01-05T10:24:32.350Z,11.73
2018-01-05T10:25:32.309Z,11.79
2018-01-05T10:26:32.313Z,11.67
2018-01-05T10:27:32.298Z,11.76
2018-01-05T10:28:32.068Z,11.69
2018-01-05T10:29:32.270Z,11.75
2018-01-05T10:30:32.289Z,11.79
2018-01-05T10:31:32.017Z,11.83
2018-01-05T10:32:32.247Z,11.79
2018-01-05T10:33:32.268Z,11.85
2018-01-05T10:34:32.273Z,11.91
2018-01-05T10:35:32.259Z,12.02
2018-01-05T10:36:32.218Z,12.01
2018-01-05T10:37:31.957Z,11.98
2018-01-05T10:38:31.952Z,11.99
2018-01-05T10:39:31.954Z,11.95
2018-01-05T10:40:32.228Z,12.05
2018-01-05T10:41:32.184Z,12.01
2018-01-05T10:42:31.931Z,12.09
2018-01-05T10:43:32.178Z,12.07
2018-01-05T10:44:32.208Z,12.02
2018-01-05T10:45:32.481Z,12.2
2018-01-05T10:46:32.273Z,12.12
2018-01-05T10:47:32.140Z,12.14
2018-01-05T10:48:32.135Z,12.17
2018-01-05T10:49:32.130Z,12.19
2018-01-05T10:50:32.188Z,12.28
2018-01-05T10:51:32.105Z,12.13
2018-01-05T10:52:31.848Z,12.16
2018-01-05T10:53:32.089Z,12.32
2018-01-05T10:54:32.086Z,12.2
2018-01-05T10:55:32.093Z,12.28
2018-01-05T10:56:32.109Z,12.14
2018-01-05T10:57:31.884Z,12.24
2018-01-05T10:58:32.281Z,12.19
2018-01-05T10:59:32.080Z,12.1
2018-01-05T11:00:32.068Z,12.16
2018-01-05T11:01:32.009Z,12.21
2018-01-05T11:02:31.764Z,12.21
2018-01-05T11:03:32.040Z,12.21
2018-01-05T11:04:32.019Z,12.21
2018-01-05T11:05:31.985Z,12.29
2018-01-05T11:06:32.041Z,12.24
2018-01-05T11:07:31.715Z,12.21
2018-01-05T11:08:31.728Z,12.28
2018-01-05T11:09:31.981Z,12.31
2018-01-05T11:10:31.680Z,12.23
2018-01-05T11:11:31.951Z,12.38
2018-01-05T11:12:31.673Z,12.45
2018-01-05T11:13:31.950Z,12.45
2018-01-05T11:14:31.654Z,12.49
2018-01-05T11:15:31.687Z,12.47
2018-01-05T11:16:31.650Z,12.42
2018-01-05T11:17:31.899Z,12.49
2018-01-05T11:18:31.902Z,12.53
2018-01-05T11:19:31.924Z,12.56
2018-01-05T11:20:31.903Z,12.6
2018-01-05T11:21:31.861Z,12.56
2018-01-05T11:22:31.866Z,12.56
2018-01-05T11:23:31.862Z,12.64
2018-01-05T11:24:31.845Z,12.59
2018-01-05T11:25:31.850Z,12.7
2018-01-05T11:26:31.838Z,12.65
2018-01-05T11:27:31.863Z,12.6
2018-01-05T11:28:31.854Z,12.67
2018-01-05T11:29:31.852Z,12.67
2018-01-05T11:30:31.855Z,12.71
2018-01-05T11:31:31.789Z,12.72
2018-01-05T11:32:31.786Z,12.77
2018-01-05T11:33:31.813Z,12.75
2018-01-05T11:34:31.779Z,12.71
2018-01-05T11:35:31.755Z,12.74
2018-01-05T11:36:32.271Z,12.72
2018-01-05T11:37:31.485Z,12.74
2018-01-05T11:38:31.736Z,12.74
2018-01-05T11:39:31.490Z,12.79
2018-01-05T11:40:31.789Z,12.83
2018-01-05T11:41:31.802Z,12.89
2018-01-05T11:42:31.713Z,12.75
2018-01-05T11:43:31.702Z,12.74
2018-01-05T11:44:31.684Z,12.7
2018-01-05T11:45:31.740Z,12.67
2018-01-05T11:46:31.748Z,12.71
2018-01-05T11:47:31.395Z,12.65
2018-01-05T11:48:31.670Z,12.65
2018-01-05T11:49:31.646Z,12.65
2018-01-05T11:50:31.720Z,12.6
2018-01-05T11:51:31.404Z,12.56
2018-01-05T11:52:31.677Z,12.59
2018-01-05T11:53:31.638Z,12.64
2018-01-05T11:54:31.644Z,12.62
2018-01-05T11:55:31.614Z,12.59
2018-01-05T11:56:31.763Z,12.62
2018-01-05T11:57:31.591Z,12.56
2018-01-05T11:58:31.337Z,12.6
2018-01-05T11:59:31.302Z,12.68
2018-01-05T12:00:31.576Z,12.6
2018-01-05T12:01:31.556Z,12.53
2018-01-05T12:02:31.561Z,12.6
2018-01-05T12:03:31.272Z,12.65
2018-01-05T12:04:31.263Z,12.62
2018-01-05T12:05:31.254Z,12.65
2018-01-05T12:06:31.543Z,12.72
2018-01-05T12:07:31.252Z,12.72
2018-01-05T12:08:31.490Z,12.67
2018-01-05T12:09:31.497Z,12.71
2018-01-05T12:10:31.477Z,12.74
2018-01-05T12:11:31.486Z,12.74
2018-01-05T12:12:31.505Z,12.74
2018-01-05T12:13:31.204Z,12.72
2018-01-05T12:14:31.440Z,12.68
2018-01-05T12:15:31.445Z,12.71
2018-01-05T12:16:31.428Z,12.7
2018-01-05T12:17:31.174Z,12.7
2018-01-05T12:18:31.448Z,12.59
2018-01-05T12:19:31.404Z,12.5
2018-01-05T12:20:31.403Z,12.5
2018-01-05T12:21:31.408Z,12.46
2018-01-05T12:22:31.398Z,12.47
2018-01-05T12:23:31.124Z,12.38
2018-01-05T12:24:31.121Z,12.42
2018-01-05T12:25:31.103Z,12.42
2018-01-05T12:26:31.417Z,12.34
2018-01-05T12:27:31.350Z,12.42
2018-01-05T12:28:31.367Z,12.41
2018-01-05T12:29:31.323Z,12.29
2018-01-05T12:30:31.315Z,12.27
2018-01-05T12:31:31.321Z,12.13
2018-01-05T12:32:31.334Z,12.2
2018-01-05T12:33:31.295Z,12.12
2018-01-05T12:34:31.044Z,12.17
2018-01-05T12:35:31.288Z,12.01
2018-01-05T12:36:31.281Z,12.1
2018-01-05T12:37:31.711Z,12.17
2018-01-05T12:38:31.281Z,12.1
2018-01-05T12:39:31.252Z,12.13
2018-01-05T12:40:31.240Z,12.1
2018-01-05T12:41:31.684Z,12.24
2018-01-05T12:42:31.239Z,12.19
2018-01-05T12:43:31.211Z,12.19
2018-01-05T12:44:31.218Z,12.17
2018-01-05T12:45:31.206Z,12.1
2018-01-05T12:46:31.183Z,12.23
2018-01-05T12:47:31.200Z,12.17
2018-01-05T12:48:31.184Z,12.23
2018-01-05T12:49:31.176Z,12.29
2018-01-05T12:50:31.167Z,12.31
2018-01-05T12:51:31.164Z,12.21
2018-01-05T12:52:31.147Z,12.17
2018-01-05T12:53:31.140Z,12.17
2018-01-05T12:54:31.155Z,12.23
2018-01-05T12:55:31.112Z,12.28
2018-01-05T12:56:31.125Z,12.37
2018-01-05T12:57:31.140Z,12.38
2018-01-05T12:58:31.136Z,12.42
2018-01-05T12:59:31.102Z,12.39
2018-01-05T13:00:31.106Z,12.39
2018-01-05T13:01:30.822Z,12.47
2018-01-05T13:02:31.065Z,12.41
2018-01-05T13:03:31.053Z,12.47
2018-01-05T13:04:30.792Z,12.49
2018-01-05T13:05:30.784Z,12.45
2018-01-05T13:06:31.074Z,12.46
2018-01-05T13:07:30.782Z,12.39
2018-01-05T13:08:31.074Z,12.32
2018-01-05T13:09:31.033Z,12.32
2018-01-05T13:10:31.017Z,12.47
2018-01-05T13:11:31.104Z,12.34
2018-01-05T13:12:30.984Z,12.46